Time;durP1;ratioP1;P1;durP2;ratioP2;P2;SDS_P1;SDS_P2;PMS_P1;PMS_P2;Temp;Humidity;BMP_temperature;BMP_pressure;BME280_temperature;BME280_humidity;BME280_pressure;Samples;Min_cycle;Max_cycle;Signal;HPM_P1;HPM_P2
2023/09/30 00:00:34;;;;;;;12.30;7.78;;;;;;;19.80;58.67;101317.69;4995342;28;20515;-80
2023/09/30 00:03:28;;;;;;;16.70;7.93;;;;;;;19.75;58.66;101321.53;4992274;28;20057;-79
2023/09/30 00:06:23;;;;;;;36.58;8.02;;;;;;;19.67;58.68;101325.31;4993363;28;20541;-79
2023/09/30 00:09:18;;;;;;;19.45;8.63;;;;;;;19.58;59.21;101317.25;4981279;28;20057;-78
2023/09/30 00:12:10;;;;;;;16.70;7.25;;;;;;;19.83;57.71;101320.53;4992824;28;20041;-79
2023/09/30 00:15:02;;;;;;;11.45;7.80;;;;;;;19.53;58.55;101303.72;4994146;28;20045;-79
2023/09/30 00:18:02;;;;;;;18.83;7.82;;;;;;;19.36;59.34;101309.63;4993205;28;20049;-79
2023/09/30 00:20:56;;;;;;;11.48;7.68;;;;;;;19.37;59.32;101304.91;4995908;28;20073;-79
2023/09/30 00:23:56;;;;;;;15.65;7.00;;;;;;;19.60;58.36;101306.66;4993223;28;20061;-79
2023/09/30 00:26:50;;;;;;;11.70;6.38;;;;;;;19.57;58.48;101306.56;4992960;28;20427;-80
2023/09/30 00:29:45;;;;;;;13.88;6.78;;;;;;;19.67;58.22;101302.41;4992939;28;20053;-79
2023/09/30 00:32:39;;;;;;;18.40;7.05;;;;;;;19.83;57.85;101295.69;4991905;28;20407;-79
2023/09/30 00:35:36;;;;;;;17.25;6.40;;;;;;;19.85;57.63;101290.59;4991396;28;20118;-79
2023/09/30 00:38:30;;;;;;;9.82;6.15;;;;;;;19.79;58.04;101294.00;4991825;28;20062;-79
2023/09/30 00:41:22;;;;;;;14.40;6.47;;;;;;;19.82;57.97;101299.59;4996755;28;20050;-79
2023/09/30 00:44:17;;;;;;;17.05;7.35;;;;;;;19.89;57.39;101304.47;4992453;28;20049;-79
2023/09/30 00:47:11;;;;;;;11.40;6.75;;;;;;;19.74;58.69;101308.09;4991694;28;20065;-79
2023/09/30 00:50:06;;;;;;;12.45;6.60;;;;;;;19.96;58.24;101310.16;4992063;28;20069;-79
2023/09/30 00:52:58;;;;;;;;;;;;;;;19.91;57.85;101310.44;4993934;28;20053;-80
2023/09/30 00:55:54;;;;;;;13.35;7.15;;;;;;;19.69;59.01;101309.19;4992021;28;19914;-80
2023/09/30 00:58:50;;;;;;;11.60;6.57;;;;;;;19.89;57.97;101326.56;4994945;28;20411;-79
2023/09/30 01:01:47;;;;;;;12.43;6.82;;;;;;;19.99;57.54;101314.94;4992260;28;20414;-78
2023/09/30 01:04:40;;;;;;;12.57;6.75;;;;;;;19.97;57.25;101320.00;4994839;28;20057;-78
2023/09/30 01:07:32;;;;;;;16.13;6.78;;;;;;;19.93;57.29;101317.19;4993553;28;20045;-78
2023/09/30 01:10:22;;;;;;;11.63;6.47;;;;;;;19.66;58.65;101317.41;4993044;28;20050;-78
2023/09/30 01:13:16;;;;;;;13.60;6.20;;;;;;;19.46;59.36;101322.88;4995341;28;20049;-79
2023/09/30 01:16:12;;;;;;;11.50;6.50;;;;;;;19.15;60.39;101320.94;4992818;28;20490;-79
2023/09/30 01:19:07;;;;;;;12.85;6.97;;;;;;;19.00;61.19;101319.00;4992831;28;20046;-80
2023/09/30 01:22:02;;;;;;;13.57;6.97;;;;;;;18.95;61.58;101311.00;4992875;28;20414;-78
2023/09/30 01:24:54;;;;;;;;;;;;;;;18.75;62.77;101312.91;4992620;28;20061;-78
2023/09/30 01:27:48;;;;;;;16.17;7.82;;;;;;;18.75;63.02;101318.41;4992052;28;19913;-78
2023/09/30 01:30:43;;;;;;;17.88;5.97;;;;;;;18.73;63.67;101317.97;4992932;28;20049;-78
2023/09/30 01:33:37;;;;;;;12.43;7.30;;;;;;;18.72;63.48;101307.31;4995865;28;20562;-80
2023/09/30 01:36:32;;;;;;;20.00;8.18;;;;;;;18.75;63.18;101299.13;4993832;28;20054;-78
2023/09/30 01:39:30;;;;;;;13.15;8.68;;;;;;;18.89;62.93;101298.69;4992376;28;20071;-78
2023/09/30 01:42:25;;;;;;;9.02;5.57;;;;;;;19.00;62.51;101287.91;4994724;28;20114;-77
2023/09/30 01:45:20;;;;;;;17.42;7.88;;;;;;;19.08;62.44;101289.69;4995595;28;20530;-79
2023/09/30 01:48:12;;;;;;;11.93;7.20;;;;;;;19.00;62.62;101296.16;5000549;28;20041;-78
2023/09/30 01:51:04;;;;;;;12.18;7.18;;;;;;;19.15;61.42;101298.09;5009641;28;20057;-78
2023/09/30 01:53:59;;;;;;;13.95;7.95;;;;;;;19.04;61.80;101302.59;4995370;28;20054;-78
2023/09/30 01:56:53;;;;;;;12.65;6.88;;;;;;;18.68;63.25;101298.97;4997054;28;20053;-78
2023/09/30 01:59:48;;;;;;;12.77;7.65;;;;;;;18.76;62.53;101297.16;4997073;28;20061;-77
2023/09/30 02:02:42;;;;;;;14.48;7.68;;;;;;;18.47;63.70;101290.13;4987186;28;20139;-78
2023/09/30 02:05:36;;;;;;;9.77;7.80;;;;;;;18.43;64.27;101292.00;4996084;28;20053;-77
2023/09/30 02:08:31;;;;;;;14.55;6.55;;;;;;;18.39;64.07;101288.31;4996270;28;20053;-78
2023/09/30 02:11:23;;;;;;;14.25;6.72;;;;;;;18.45;64.04;101294.38;4995054;28;20041;-78
2023/09/30 02:14:18;;;;;;;14.23;7.43;;;;;;;18.39;63.97;101288.31;4998875;28;20061;-78
2023/09/30 02:17:13;;;;;;;9.20;6.55;;;;;;;18.59;63.57;101281.00;4986298;28;20045;-78
2023/09/30 02:20:07;;;;;;;12.75;6.15;;;;;;;18.66;63.17;101281.97;4997596;28;20415;-78
2023/09/30 02:23:02;;;;;;;11.73;7.03;;;;;;;18.70;62.70;101282.84;4994564;28;20050;-78
2023/09/30 02:25:56;;;;;;;10.20;6.88;;;;;;;18.70;62.84;101284.81;4995703;28;20045;-77
2023/09/30 02:28:51;;;;;;;11.43;7.40;;;;;;;18.76;62.61;101281.44;4996398;28;20065;-79
2023/09/30 02:31:45;;;;;;;10.70;6.57;;;;;;;18.89;62.03;101292.38;5001124;28;20046;-78
2023/09/30 02:34:38;;;;;;;13.75;5.93;;;;;;;18.90;61.85;101285.69;4995031;28;20407;-77
2023/09/30 02:37:33;;;;;;;15.57;7.03;;;;;;;18.53;62.96;101279.66;4996287;28;20049;-78
2023/09/30 02:40:28;;;;;;;10.68;6.38;;;;;;;18.54;62.59;101278.53;4985719;28;20045;-77
2023/09/30 02:43:20;;;;;;;10.57;6.43;;;;;;;18.52;62.57;101269.78;5008182;28;20054;-78
2023/09/30 02:46:12;;;;;;;11.82;7.03;;;;;;;18.39;62.70;101278.09;5000117;28;20069;-78
2023/09/30 02:49:15;;;;;;;7.47;5.68;;;;;;;18.38;62.71;101272.97;4996048;28;20069;-78
2023/09/30 02:52:07;;;;;;;11.77;6.40;;;;;;;18.53;62.27;101280.44;5000679;28;20053;-78
2023/09/30 02:55:01;;;;;;;9.70;6.15;;;;;;;18.38;63.04;101281.25;4995227;28;20049;-78
2023/09/30 02:57:53;;;;;;;9.18;6.28;;;;;;;18.38;62.79;101289.50;4994202;28;20500;-78
2023/09/30 03:00:52;;;;;;;14.80;6.38;;;;;;;18.42;63.01;101284.88;4999650;28;20106;-78
2023/09/30 03:03:44;;;;;;;15.38;5.82;;;;;;;18.45;62.89;101275.09;4996410;28;20042;-78
2023/09/30 03:06:39;;;;;;;11.30;5.78;;;;;;;18.35;63.50;101281.94;4994917;28;20057;-78
2023/09/30 03:09:33;;;;;;;9.43;6.72;;;;;;;18.36;63.26;101270.56;4987018;28;20793;-79
2023/09/30 03:12:31;;;;;;;14.10;6.45;;;;;;;18.34;63.87;101261.03;4996248;28;20061;-78
2023/09/30 03:15:25;;;;;;;13.98;6.70;;;;;;;18.42;63.24;101265.59;4981182;28;20049;-78
2023/09/30 03:18:22;;;;;;;18.10;6.32;;;;;;;18.58;63.16;101274.69;5000324;28;20065;-78
2023/09/30 03:21:18;;;;;;;10.10;5.53;;;;;;;18.47;63.73;101270.03;4993671;28;20049;-78
2023/09/30 03:24:12;;;;;;;9.73;5.63;;;;;;;18.40;63.94;101262.38;4994292;28;20407;-78
2023/09/30 03:27:06;;;;;;;9.75;5.72;;;;;;;18.57;63.67;101269.53;4994628;28;20530;-78
2023/09/30 03:30:01;;;;;;;17.70;6.57;;;;;;;18.56;63.20;101268.75;5000349;28;20050;-78
2023/09/30 03:32:56;;;;;;;7.53;5.03;;;;;;;18.61;63.07;101265.72;4993527;28;20041;-79
2023/09/30 03:35:51;;;;;;;12.32;5.68;;;;;;;18.76;62.26;101266.84;4993492;28;20057;-78
2023/09/30 03:38:46;;;;;;;7.88;5.43;;;;;;;18.63;62.73;101271.69;4998467;28;20419;-78
2023/09/30 03:41:36;;;;;;;9.15;5.68;;;;;;;18.49;62.92;101265.75;4982240;28;20070;-79
2023/09/30 03:44:31;;;;;;;12.15;5.53;;;;;;;18.36;63.39;101261.50;4974351;28;20067;-77
2023/09/30 03:47:25;;;;;;;10.85;5.68;;;;;;;18.14;64.11;101265.66;4963972;28;20061;-78
2023/09/30 03:50:20;;;;;;;7.28;5.50;;;;;;;18.14;64.14;101260.13;4961678;28;20049;-77
2023/09/30 03:53:14;;;;;;;10.90;6.30;;;;;;;18.25;64.08;101271.44;4977991;28;20050;-78
2023/09/30 03:56:09;;;;;;;9.93;4.70;;;;;;;18.18;64.37;101261.06;4976174;28;20053;-77
2023/09/30 03:59:03;;;;;;;11.25;7.20;;;;;;;18.35;63.42;101259.91;4960580;28;20527;-78
2023/09/30 04:01:58;;;;;;;8.15;4.65;;;;;;;18.30;63.32;101258.22;4974704;28;20054;-78
2023/09/30 04:04:50;;;;;;;11.57;6.00;;;;;;;18.37;63.48;101260.34;4973499;28;20046;-78
2023/09/30 04:07:42;;;;;;;9.43;5.35;;;;;;;18.30;63.73;101260.97;4973616;28;20042;-78
2023/09/30 04:10:37;;;;;;;15.70;5.45;;;;;;;18.53;63.02;101261.16;4974591;28;20046;-77
2023/09/30 04:13:37;;;;;;;13.13;5.45;;;;;;;18.35;63.55;101265.41;4972928;28;20046;-78
2023/09/30 04:16:30;;;;;;;13.88;6.32;;;;;;;18.50;62.83;101255.53;4973023;28;20053;-78
2023/09/30 04:19:22;;;;;;;9.05;6.18;;;;;;;18.35;63.45;101248.88;4966436;28;20404;-78
2023/09/30 04:22:16;;;;;;;11.40;5.70;;;;;;;18.55;62.30;101258.88;4973923;28;20410;-79
2023/09/30 04:25:12;;;;;;;12.65;6.50;;;;;;;18.56;62.47;101257.72;4972607;28;20521;-78
2023/09/30 04:28:06;;;;;;;10.40;5.63;;;;;;;18.54;62.97;101256.50;4972804;28;20053;-79
2023/09/30 04:31:01;;;;;;;16.85;6.75;;;;;;;18.58;62.55;101258.19;4976567;28;20065;-79
2023/09/30 04:33:53;;;;;;;17.83;6.05;;;;;;;18.50;62.70;101261.84;4974321;28;20050;-78
2023/09/30 04:36:48;;;;;;;15.20;7.47;;;;;;;18.45;63.17;101264.06;4973609;28;20065;-79
2023/09/30 04:39:40;;;;;;;11.23;6.68;;;;;;;18.43;63.24;101264.44;4972642;28;20053;-79
2023/09/30 04:42:34;;;;;;;10.02;7.53;;;;;;;18.45;63.17;101262.13;4973185;28;20042;-78
2023/09/30 04:45:27;;;;;;;18.08;8.20;;;;;;;18.35;63.75;101262.66;4973341;28;20077;-79
2023/09/30 04:48:21;;;;;;;9.73;6.85;;;;;;;18.50;62.83;101261.84;4974781;28;20416;-78
2023/09/30 04:51:16;;;;;;;17.85;6.50;;;;;;;18.45;62.99;101259.38;4980404;28;20049;-78
2023/09/30 04:54:11;;;;;;;8.77;6.47;;;;;;;18.43;62.50;101261.69;4986322;28;20073;-78
2023/09/30 04:57:05;;;;;;;14.45;7.13;;;;;;;18.10;64.13;101266.69;4984691;28;20057;-79
2023/09/30 05:00:00;;;;;;;10.85;7.03;;;;;;;17.99;64.46;101271.91;4984930;28;20041;-78
2023/09/30 05:02:54;;;;;;;13.55;8.20;;;;;;;17.65;66.06;101276.09;4991856;28;20514;-79
2023/09/30 05:05:49;;;;;;;11.38;7.05;;;;;;;17.46;66.80;101267.63;4978457;28;20049;-79
2023/09/30 05:08:43;;;;;;;12.80;7.22;;;;;;;17.71;65.92;101262.88;4991517;28;20053;-79
2023/09/30 05:11:38;;;;;;;87.82;10.80;;;;;;;17.57;66.88;101267.94;4979242;28;20110;-80
2023/09/30 05:14:34;;;;;;;56.85;8.52;;;;;;;18.00;65.42;101276.28;4994737;28;20050;-79
2023/09/30 05:17:28;;;;;;;15.38;6.68;;;;;;;18.11;64.64;101277.38;4977668;28;20050;-79
2023/09/30 05:20:23;;;;;;;10.60;7.88;;;;;;;18.16;64.51;101279.06;4988390;28;20053;-78
2023/09/30 05:23:17;;;;;;;17.52;8.23;;;;;;;17.67;66.50;101279.28;4976706;28;20045;-78
2023/09/30 05:26:12;;;;;;;15.93;7.93;;;;;;;17.58;66.66;101286.84;4990004;28;20748;-78
2023/09/30 05:29:04;;;;;;;10.90;7.57;;;;;;;17.63;66.65;101288.56;5002576;28;20045;-79
2023/09/30 05:31:56;;;;;;;14.35;8.48;;;;;;;17.70;66.24;101289.59;4984890;28;20050;-79
2023/09/30 05:34:48;;;;;;;14.95;7.88;;;;;;;17.49;67.00;101291.69;4988044;28;20049;-79
2023/09/30 05:37:36;;;;;;;22.60;7.93;;;;;;;17.40;67.36;101296.50;4986989;28;20053;-79
2023/09/30 05:40:30;;;;;;;10.45;7.03;;;;;;;17.63;66.73;101299.56;4998367;28;20041;-80
2023/09/30 05:43:22;;;;;;;14.85;6.65;;;;;;;17.77;66.54;101305.50;4989112;28;20050;-79
2023/09/30 05:46:16;;;;;;;8.60;6.50;;;;;;;18.02;65.24;101317.22;4983515;28;20416;-79
2023/09/30 05:49:13;;;;;;;12.60;7.47;;;;;;;17.97;65.07;101322.97;4984578;28;20061;-79
2023/09/30 05:52:10;;;;;;;13.32;9.07;;;;;;;17.66;67.76;101320.91;4991915;28;20054;-79
2023/09/30 05:55:05;;;;;;;16.52;8.80;;;;;;;18.09;65.93;101325.66;4984504;28;20050;-78
2023/09/30 05:57:59;;;;;;;14.55;7.43;;;;;;;18.32;64.85;101333.00;4991893;28;20069;-79
2023/09/30 06:00:52;;;;;;;19.10;8.48;;;;;;;18.50;64.13;101336.22;4983401;28;20061;-79
2023/09/30 06:03:46;;;;;;;10.75;7.13;;;;;;;18.65;63.31;101338.22;4991634;28;20050;-79
2023/09/30 06:06:41;;;;;;;17.50;7.97;;;;;;;18.79;63.07;101344.09;4988213;28;20419;-78
2023/09/30 06:09:35;;;;;;;14.50;8.70;;;;;;;18.93;62.81;101345.63;4984675;28;20050;-78
2023/09/30 06:12:35;;;;;;;12.57;8.02;;;;;;;19.10;62.52;101339.72;4979365;28;20122;-80
2023/09/30 06:15:30;;;;;;;14.07;7.18;;;;;;;19.22;62.21;101339.63;4982664;28;20061;-78
2023/09/30 06:18:22;;;;;;;15.25;8.88;;;;;;;19.32;62.04;101341.84;4991720;28;20053;-80
2023/09/30 06:21:26;;;;;;;21.15;8.50;;;;;;;19.41;61.45;101330.59;4995362;28;20049;-79
2023/09/30 06:24:22;;;;;;;25.08;9.50;;;;;;;19.50;61.19;101332.06;4990381;28;20045;-79
2023/09/30 06:27:21;;;;;;;16.92;8.38;;;;;;;19.67;60.73;101327.25;4991859;28;20049;-79
2023/09/30 06:30:20;;;;;;;12.80;8.68;;;;;;;19.45;61.90;101321.28;4995453;28;20073;-80
2023/09/30 06:33:12;;;;;;;22.67;9.23;;;;;;;19.43;62.63;101322.78;4994371;28;20530;-79
2023/09/30 06:36:09;;;;;;;21.65;8.25;;;;;;;19.60;61.59;101323.22;4984251;28;20062;-80
2023/09/30 06:39:05;;;;;;;18.80;7.57;;;;;;;19.78;60.83;101323.56;4995665;28;20073;-79
2023/09/30 06:41:57;;;;;;;18.23;9.18;;;;;;;19.74;61.18;101317.19;4994995;28;20041;-79
2023/09/30 06:44:52;;;;;;;17.23;8.80;;;;;;;19.75;61.82;101326.25;4981000;28;20045;-78
2023/09/30 06:47:47;;;;;;;15.10;7.50;;;;;;;19.89;61.21;101326.56;4983198;28;20070;-80
2023/09/30 06:50:41;;;;;;;17.33;8.25;;;;;;;20.03;61.21;101324.88;4992635;28;20049;-77
2023/09/30 06:53:36;;;;;;;18.50;7.95;;;;;;;20.08;61.15;101323.78;4982823;28;20046;-76
2023/09/30 06:56:31;;;;;;;19.77;8.88;;;;;;;20.10;61.21;101323.41;4998480;28;20065;-78
2023/09/30 06:59:23;;;;;;;15.52;8.70;;;;;;;20.28;60.64;101330.88;4994658;28;20045;-77
2023/09/30 07:02:15;;;;;;;21.25;9.52;;;;;;;20.53;60.48;101327.78;4994104;28;20057;-76
2023/09/30 07:05:17;;;;;;;16.52;8.00;;;;;;;20.79;58.97;101330.63;4994277;28;20053;-78
2023/09/30 07:08:12;;;;;;;17.40;9.23;;;;;;;20.91;59.11;101333.22;4991262;28;20045;-76
2023/09/30 07:11:05;;;;;;;;;;;;;;;21.10;57.63;101346.16;4991321;28;20081;-77
2023/09/30 07:13:59;;;;;;;16.58;9.02;;;;;;;20.91;58.46;101355.34;4988902;28;19914;-78
2023/09/30 07:16:54;;;;;;;21.05;8.20;;;;;;;21.09;57.99;101353.66;4992966;28;20041;-78
2023/09/30 07:19:48;;;;;;;18.60;9.20;;;;;;;21.25;57.65;101364.59;4994014;28;20069;-77
2023/09/30 07:22:43;;;;;;;34.70;11.02;;;;;;;21.35;57.70;101375.03;4993897;28;20065;-78
2023/09/30 07:25:37;;;;;;;14.43;7.97;;;;;;;21.42;57.65;101379.88;4993339;28;20388;-79
2023/09/30 07:28:32;;;;;;;22.63;8.27;;;;;;;21.54;57.16;101379.66;4993942;28;20435;-76
2023/09/30 07:31:27;;;;;;;21.05;9.27;;;;;;;21.69;56.56;101381.44;4976184;28;20041;-77
2023/09/30 07:34:21;;;;;;;17.27;9.45;;;;;;;21.82;55.96;101385.59;4986113;28;20037;-77
2023/09/30 07:37:17;;;;;;;17.88;8.23;;;;;;;21.70;54.32;101378.31;4983610;28;20053;-77
2023/09/30 07:40:09;;;;;;;23.42;8.65;;;;;;;21.84;55.66;101385.22;4991801;28;20049;-78
2023/09/30 07:43:03;;;;;;;18.75;7.97;;;;;;;21.86;53.82;101389.22;4983430;28;20065;-78
2023/09/30 07:45:58;;;;;;;20.13;7.85;;;;;;;22.02;54.65;101389.06;4990256;28;20045;-77
2023/09/30 07:48:53;;;;;;;20.15;8.27;;;;;;;22.19;53.67;101391.25;4984293;28;20117;-77
2023/09/30 07:55:38;;;;;;;57.00;9.27;;;;;;;22.48;51.66;101395.16;5003222;28;20052;-77
2023/09/30 07:58:36;;;;;;;18.73;7.50;;;;;;;22.69;50.84;101391.78;5004817;28;20052;-78
2023/09/30 08:01:30;;;;;;;15.93;8.18;;;;;;;22.97;48.52;101390.09;5005250;28;20060;-78
2023/09/30 08:04:25;;;;;;;64.38;8.63;;;;;;;22.91;49.40;101388.84;5001249;28;20041;-77
2023/09/30 08:07:19;;;;;;;47.65;7.93;;;;;;;22.57;50.96;101384.53;4992411;28;20069;-77
2023/09/30 08:10:19;;;;;;;32.25;8.82;;;;;;;22.16;51.17;101395.56;5009851;28;20113;-77
2023/09/30 08:13:13;;;;;;;35.75;6.90;;;;;;;22.29;49.76;101389.78;5004003;28;20034;-77
2023/09/30 08:16:08;;;;;;;17.98;6.55;;;;;;;22.41;50.54;101406.94;5013577;28;20053;-77
2023/09/30 08:19:02;;;;;;;38.42;7.53;;;;;;;22.18;50.67;101404.31;5012735;28;20053;-79
2023/09/30 08:21:55;;;;;;;22.60;6.50;;;;;;;22.16;49.68;101409.41;5013915;28;20139;-78
2023/09/30 08:24:49;;;;;;;13.90;6.30;;;;;;;22.17;50.39;101411.03;4998901;28;20517;-77
2023/09/30 08:27:49;;;;;;;28.58;7.93;;;;;;;22.51;50.48;101406.25;5012429;28;20117;-78
2023/09/30 08:30:43;;;;;;;23.05;6.60;;;;;;;22.36;50.50;101404.50;5012316;28;20068;-77
2023/09/30 08:33:35;;;;;;;9.52;6.78;;;;;;;22.47;49.44;101408.19;5012365;28;20053;-77
2023/09/30 08:36:30;;;;;;;20.73;5.93;;;;;;;22.72;49.96;101405.72;5012183;28;20069;-78
2023/09/30 08:39:25;;;;;;;54.30;9.65;;;;;;;22.62;49.24;101409.16;5011942;28;20052;-77
2023/09/30 08:42:20;;;;;;;14.73;6.25;;;;;;;22.68;48.67;101410.41;5009269;28;20537;-77
2023/09/30 08:45:18;;;;;;;35.65;7.15;;;;;;;22.85;48.68;101401.50;5001593;28;20064;-78
2023/09/30 08:48:13;;;;;;;16.50;6.32;;;;;;;22.82;49.15;101396.69;4992676;28;20411;-78
2023/09/30 08:51:08;;;;;;;33.72;6.97;;;;;;;22.94;49.07;101393.66;5006558;28;20052;-78
2023/09/30 08:54:02;;;;;;;19.80;7.57;;;;;;;22.99;49.18;101393.31;5009843;28;20045;-77
2023/09/30 08:56:58;;;;;;;19.67;7.25;;;;;;;23.02;48.58;101395.31;5010796;28;20053;-77
2023/09/30 08:59:55;;;;;;;22.02;6.72;;;;;;;23.17;48.60;101396.22;5001242;28;20044;-78
2023/09/30 09:02:49;;;;;;;17.83;8.77;;;;;;;23.09;48.23;101394.56;5007604;28;20045;-79
2023/09/30 09:05:44;;;;;;;21.85;8.57;;;;;;;23.17;47.66;101406.50;4994319;28;20046;-78
2023/09/30 09:08:39;;;;;;;18.45;6.80;;;;;;;23.32;47.63;101405.44;4978268;28;20061;-78
2023/09/30 09:11:41;;;;;;;17.42;6.18;;;;;;;23.15;48.96;101404.16;4991567;28;20046;-78
2023/09/30 09:14:48;;;;;;;18.92;7.03;;;;;;;23.06;48.40;101408.44;4992053;28;20060;-79
2023/09/30 09:17:52;;;;;;;23.38;6.80;;;;;;;22.88;49.54;101411.03;4991965;28;20061;-78
2023/09/30 09:20:46;;;;;;;22.23;6.53;;;;;;;22.84;49.95;101404.66;5003275;28;20065;-78
2023/09/30 09:23:43;;;;;;;11.35;5.25;;;;;;;22.74;50.76;101399.81;4991794;28;20079;-78
2023/09/30 09:26:38;;;;;;;21.02;6.45;;;;;;;22.70;50.75;101391.44;4991844;28;20065;-78
2023/09/30 09:29:30;;;;;;;12.73;5.68;;;;;;;22.78;50.45;101390.34;4994736;28;20410;-79
2023/09/30 09:32:24;;;;;;;20.02;6.97;;;;;;;22.86;50.68;101385.63;4999155;28;20065;-78
2023/09/30 09:35:25;;;;;;;26.63;6.95;;;;;;;22.83;50.55;101387.22;4991754;28;20050;-78
2023/09/30 09:38:19;;;;;;;15.38;6.30;;;;;;;23.23;49.47;101388.34;4991734;28;20045;-77
2023/09/30 09:41:14;;;;;;;17.40;5.28;;;;;;;22.87;50.77;101401.91;4979593;28;20046;-77
2023/09/30 09:44:09;;;;;;;51.30;7.88;;;;;;;22.89;50.71;101405.09;4990830;28;20050;-79
2023/09/30 09:47:07;;;;;;;25.23;5.30;;;;;;;22.75;51.15;101396.66;4990903;28;20045;-77
2023/09/30 09:50:04;;;;;;;24.13;6.63;;;;;;;22.66;51.43;101398.09;4991640;28;20114;-77
2023/09/30 09:52:56;;;;;;;20.45;5.05;;;;;;;22.60;51.93;101400.44;4991144;28;20055;-77
2023/09/30 09:55:49;;;;;;;35.90;6.10;;;;;;;22.63;52.37;101402.44;4991503;28;20053;-77
2023/09/30 09:58:44;;;;;;;19.55;5.53;;;;;;;22.62;51.94;101403.59;4990531;28;20049;-76
2023/09/30 10:01:36;;;;;;;;;;;;;;;22.59;52.11;101405.19;4988563;28;20053;-78
2023/09/30 10:04:30;;;;;;;9.38;4.82;;;;;;;22.71;52.08;101406.88;4995604;28;19922;-79
2023/09/30 10:07:31;;;;;;;15.43;5.60;;;;;;;22.67;51.87;101406.03;4995210;28;20402;-78
2023/09/30 10:10:33;;;;;;;22.17;5.93;;;;;;;22.80;53.07;101418.50;4996685;28;20072;-78
2023/09/30 10:14:00;;;;;;;15.27;4.53;;;;;;;22.84;52.54;101416.53;5013537;28;20410;-76
2023/09/30 10:16:52;;;;;;;22.83;6.30;;;;;;;22.87;51.82;101417.75;5007052;28;20048;-79
2023/09/30 10:20:09;;;;;;;17.33;5.95;;;;;;;22.92;52.02;101406.31;5005534;28;20049;-78
2023/09/30 10:23:23;;;;;;;18.65;6.00;;;;;;;23.17;52.67;101395.41;5001951;28;20513;-77
2023/09/30 10:26:17;;;;;;;10.48;6.60;;;;;;;23.74;51.46;101388.31;4985429;28;20411;-77
2023/09/30 10:29:13;;;;;;;13.70;4.03;;;;;;;23.48;49.92;101392.13;4995133;28;20049;-77
2023/09/30 10:32:08;;;;;;;16.27;6.63;;;;;;;23.75;51.43;101399.03;4993944;28;20419;-77
2023/09/30 10:35:02;;;;;;;14.98;5.97;;;;;;;24.29;49.07;101397.31;4995327;28;20046;-78
2023/09/30 10:38:32;;;;;;;9.77;4.72;;;;;;;24.20;48.76;101391.34;5012363;28;20121;-78
2023/09/30 10:41:50;;;;;;;8.07;4.68;;;;;;;23.72;49.82;101397.03;5009803;28;20068;-77
2023/09/30 10:44:44;;;;;;;11.63;4.13;;;;;;;23.72;49.98;101385.91;5006938;28;20045;-77
2023/09/30 10:47:42;;;;;;;16.42;5.30;;;;;;;23.33;50.73;101393.97;5006631;28;20041;-78
2023/09/30 10:50:59;;;;;;;16.00;4.82;;;;;;;23.13;51.59;101383.50;5003822;28;20438;-78
2023/09/30 10:54:00;;;;;;;10.05;4.63;;;;;;;22.92;51.92;101373.81;5001576;28;20044;-77
2023/09/30 10:56:53;;;;;;;13.45;4.43;;;;;;;23.28;51.36;101379.66;5002597;28;20499;-78
2023/09/30 10:59:48;;;;;;;9.20;4.32;;;;;;;23.30;51.20;101367.00;4996075;28;21082;-78
2023/09/30 11:02:52;;;;;;;7.57;4.05;;;;;;;23.09;51.65;101374.34;4998488;28;20048;-78
2023/09/30 11:05:54;;;;;;;9.23;3.70;;;;;;;23.18;51.57;101372.03;5007546;28;20057;-78
2023/09/30 11:08:52;;;;;;;6.38;3.97;;;;;;;22.95;52.17;101355.63;5011420;28;20041;-78
2023/09/30 11:11:51;;;;;;;13.85;4.25;;;;;;;23.47;50.59;101359.97;5006252;28;20701;-78
2023/09/30 11:14:42;;;;;;;4.88;3.33;;;;;;;23.92;49.23;101358.66;5001214;28;20053;-79
2023/09/30 11:17:37;;;;;;;9.00;5.35;;;;;;;24.24;48.30;101358.78;4994100;28;20273;-79
2023/09/30 11:20:31;;;;;;;5.28;4.20;;;;;;;24.87;46.44;101344.22;5001614;28;20041;-78
2023/09/30 11:23:26;;;;;;;14.43;4.15;;;;;;;24.11;48.32;101332.50;4997763;28;20041;-77
2023/09/30 11:26:31;;;;;;;6.63;4.03;;;;;;;24.10;48.71;101326.16;5001965;28;20057;-78
2023/09/30 11:29:25;;;;;;;9.15;3.72;;;;;;;23.63;49.66;101324.38;4996109;28;20058;-80
2023/09/30 11:32:26;;;;;;;8.30;4.05;;;;;;;23.94;48.92;101324.91;5001305;28;20049;-77
2023/09/30 11:35:28;;;;;;;6.93;4.28;;;;;;;23.81;48.98;101321.69;5003785;28;20033;-78
2023/09/30 11:38:28;;;;;;;7.15;4.03;;;;;;;23.45;50.37;101329.03;5001699;28;20065;-78
2023/09/30 11:41:20;;;;;;;10.10;3.65;;;;;;;23.84;49.14;101330.03;4994468;28;20434;-78
2023/09/30 11:44:16;;;;;;;6.38;3.70;;;;;;;23.96;49.09;101320.56;5010854;28;20052;-78
2023/09/30 11:47:11;;;;;;;6.78;3.60;;;;;;;24.14;48.24;101315.03;5001456;28;20049;-77
2023/09/30 11:50:05;;;;;;;10.23;4.30;;;;;;;23.69;49.42;101314.50;4993511;28;20057;-78
2023/09/30 11:53:00;;;;;;;8.85;3.70;;;;;;;23.92;48.29;101318.97;4993824;28;20053;-78
2023/09/30 11:55:57;;;;;;;5.43;4.20;;;;;;;24.69;45.32;101313.56;5004093;28;20045;-77
2023/09/30 11:58:52;;;;;;;11.30;3.60;;;;;;;24.34;47.45;101318.28;4987066;28;20057;-79
2023/09/30 12:01:46;;;;;;;13.65;3.50;;;;;;;24.08;47.97;101316.59;5005784;28;20060;-78
2023/09/30 12:04:41;;;;;;;14.07;4.03;;;;;;;25.13;43.98;101318.75;5005348;28;20040;-78
2023/09/30 12:07:36;;;;;;;14.38;4.38;;;;;;;24.87;45.61;101327.53;5006939;28;20044;-79
2023/09/30 12:10:30;;;;;;;3.80;3.22;;;;;;;24.21;47.62;101315.09;5006072;28;20048;-77
2023/09/30 12:13:25;;;;;;;8.85;4.00;;;;;;;23.72;49.08;101327.59;4988840;28;20044;-78
2023/09/30 12:16:22;;;;;;;28.45;4.15;;;;;;;24.10;47.91;101328.13;5007852;28;20048;-79
2023/09/30 12:19:17;;;;;;;16.85;4.22;;;;;;;24.19;47.62;101334.13;5011545;28;20049;-78
2023/09/30 12:22:12;;;;;;;8.27;3.70;;;;;;;24.51;46.80;101331.44;5000302;28;20196;-78
2023/09/30 12:25:06;;;;;;;8.27;3.55;;;;;;;24.37;46.76;101328.66;5003760;28;20414;-78
2023/09/30 12:28:01;;;;;;;13.27;4.47;;;;;;;24.33;47.09;101323.06;5013685;28;20049;-77
2023/09/30 12:30:56;;;;;;;10.75;3.80;;;;;;;24.67;46.34;101324.31;5008392;28;20048;-77
2023/09/30 12:33:50;;;;;;;5.90;4.00;;;;;;;24.22;47.24;101322.25;5000602;28;20561;-79
2023/09/30 12:36:42;;;;;;;13.07;3.60;;;;;;;23.74;48.67;101324.44;5007515;28;20057;-79
2023/09/30 12:39:37;;;;;;;7.63;3.72;;;;;;;23.57;49.17;101322.38;5011222;28;20060;-78
2023/09/30 12:42:29;;;;;;;13.95;3.80;;;;;;;23.43;49.65;101331.38;4999740;28;20065;-77
2023/09/30 12:45:18;;;;;;;12.60;4.03;;;;;;;23.46;49.65;101327.88;5011707;28;20402;-78
2023/09/30 12:48:12;;;;;;;13.43;4.43;;;;;;;23.95;47.88;101323.72;5011005;28;20541;-78
2023/09/30 12:51:04;;;;;;;13.65;4.18;;;;;;;24.08;47.89;101309.06;4992892;28;20331;-77
2023/09/30 12:53:56;;;;;;;10.93;4.63;;;;;;;24.08;47.80;101306.28;4991112;28;20069;-77
2023/09/30 12:56:51;;;;;;;5.15;3.92;;;;;;;23.87;48.39;101307.00;4991120;28;20406;-78
2023/09/30 12:59:45;;;;;;;6.90;3.85;;;;;;;23.69;49.01;101289.50;4995502;28;20052;-77
2023/09/30 13:02:43;;;;;;;5.70;3.50;;;;;;;23.88;48.34;101286.38;5009035;28;20045;-78
2023/09/30 13:05:37;;;;;;;6.90;3.92;;;;;;;24.66;45.41;101281.00;4992052;28;20510;-77
2023/09/30 13:08:33;;;;;;;39.65;5.82;;;;;;;25.31;43.65;101287.28;4997668;28;20045;-78
2023/09/30 13:11:33;;;;;;;12.68;3.35;;;;;;;24.75;45.77;101277.81;4998549;28;20042;-77
2023/09/30 13:14:28;;;;;;;12.13;4.95;;;;;;;24.91;45.33;101285.78;5001224;28;20120;-77
2023/09/30 13:17:23;;;;;;;9.90;3.63;;;;;;;24.64;46.34;101279.78;5005502;28;20430;-77
2023/09/30 13:20:17;;;;;;;8.52;4.25;;;;;;;24.56;46.67;101286.56;5012065;28;20041;-78
2023/09/30 13:23:12;;;;;;;17.25;4.13;;;;;;;24.88;45.30;101281.03;4997474;28;20068;-78
2023/09/30 13:26:06;;;;;;;11.07;3.15;;;;;;;25.05;45.03;101269.84;5013758;28;20060;-77
2023/09/30 13:29:02;;;;;;;10.13;4.32;;;;;;;24.93;45.44;101280.63;5011019;28;20068;-78
2023/09/30 13:31:54;;;;;;;217.85;14.48;;;;;;;24.60;46.33;101282.56;5011196;28;20049;-78